createdAt,value
2022-11-17T00:00:27.922Z,98902.22
2022-11-17T00:03:30.758Z,98914.38
2022-11-17T00:06:33.481Z,98921.38
2022-11-17T00:09:36.421Z,98931.56
2022-11-17T00:12:58.090Z,98924.06
2022-11-17T00:16:00.925Z,98922.94
2022-11-17T00:19:21.758Z,98921.00
2022-11-17T00:22:25.624Z,98922.91
2022-11-17T00:25:28.210Z,98921.38
2022-11-17T00:28:32.589Z,98917.84
2022-11-17T00:31:55.247Z,98926.41
2022-11-17T00:34:58.193Z,98940.09
2022-11-17T00:38:15.476Z,98922.16
2022-11-17T00:41:18.290Z,98926.50
2022-11-17T00:44:21.063Z,98927.69
2022-11-17T00:47:23.970Z,98929.59
2022-11-17T00:50:26.653Z,98933.91
2022-11-17T00:53:29.467Z,98940.16
2022-11-17T00:56:32.530Z,98945.25
2022-11-17T00:59:35.469Z,98950.38
2022-11-17T01:02:38.146Z,98949.13
2022-11-17T01:05:41.086Z,98960.47
2022-11-17T01:08:43.685Z,98953.44
2022-11-17T01:11:47.923Z,98966.78
2022-11-17T01:14:50.492Z,98955.81
2022-11-17T01:17:53.433Z,98958.91
2022-11-17T01:20:56.073Z,98958.94
2022-11-17T01:24:01.272Z,98956.53
2022-11-17T01:27:03.847Z,98953.81
2022-11-17T01:30:07.324Z,98950.69
2022-11-17T01:33:09.865Z,98962.84
2022-11-17T01:36:22.599Z,98961.31
2022-11-17T01:39:26.705Z,98975.75
2022-11-17T01:42:29.596Z,98987.06
2022-11-17T01:45:32.222Z,98987.06
2022-11-17T01:48:35.221Z,98994.44
2022-11-17T01:51:43.353Z,98990.16
2022-11-17T01:54:48.640Z,98983.09
2022-11-17T01:58:02.781Z,98976.06
2022-11-17T02:01:05.751Z,98971.31
2022-11-17T02:04:08.706Z,98962.84
2022-11-17T02:07:25.661Z,98958.53
2022-11-17T02:10:31.991Z,98945.66
2022-11-17T02:13:36.122Z,98953.03
2022-11-17T02:16:38.894Z,98938.62
2022-11-17T02:19:44.495Z,98938.62
2022-11-17T02:22:47.456Z,98947.22
2022-11-17T02:26:08.250Z,98954.22
2022-11-17T02:29:23.105Z,98947.94
2022-11-17T02:32:51.471Z,98947.66
2022-11-17T02:36:02.100Z,98962.16
2022-11-17T02:39:26.394Z,98969.88
2022-11-17T02:43:05.831Z,98964.41
2022-11-17T02:46:24.518Z,98974.59
2022-11-17T02:49:29.757Z,98975.00
2022-11-17T02:52:32.694Z,98982.81
2022-11-17T02:55:36.042Z,98971.13
2022-11-17T02:58:38.952Z,98982.81
2022-11-17T03:02:11.187Z,98981.25
2022-11-17T03:05:18.151Z,98987.13
2022-11-17T03:08:39.501Z,98989.44
2022-11-17T03:11:50.784Z,98991.75
2022-11-17T03:15:11.675Z,98992.56
2022-11-17T03:18:29.309Z,98999.97
2022-11-17T03:21:38.977Z,99005.84
2022-11-17T03:24:51.664Z,99000.78
2022-11-17T03:28:00.678Z,99006.62
2022-11-17T03:31:07.105Z,99002.75
2022-11-17T03:34:14.198Z,98987.50
2022-11-17T03:37:21.090Z,99003.13
2022-11-17T03:40:27.819Z,98998.81
2022-11-17T03:43:32.613Z,99006.59
2022-11-17T03:46:39.036Z,99004.25
2022-11-17T03:49:47.773Z,99005.06
2022-11-17T03:52:50.871Z,99004.69
2022-11-17T03:56:22.422Z,99014.44
2022-11-17T03:59:31.101Z,99003.84
2022-11-17T04:02:34.023Z,99012.09
2022-11-17T04:05:36.865Z,99001.16
2022-11-17T04:08:39.622Z,98987.13
2022-11-17T04:12:01.303Z,98985.56
2022-11-17T04:15:22.379Z,98992.97
2022-11-17T04:18:26.296Z,98992.59
2022-11-17T04:21:28.859Z,98998.44
2022-11-17T04:24:31.725Z,98995.31
2022-11-17T04:27:52.752Z,99001.19
2022-11-17T04:30:55.614Z,99006.62
2022-11-17T04:34:03.773Z,99019.50
2022-11-17T04:37:17.268Z,99028.47
2022-11-17T04:40:20.342Z,99038.97
2022-11-17T04:43:23.190Z,99040.94
2022-11-17T04:46:26.926Z,99033.91
2022-11-17T04:49:32.146Z,99022.97
2022-11-17T04:52:34.662Z,99033.13
2022-11-17T04:55:37.457Z,99031.16
2022-11-17T04:58:52.084Z,99021.00
2022-11-17T05:01:55.027Z,99039.63
2022-11-17T05:04:59.734Z,99029.19
2022-11-17T05:08:02.622Z,99033.50
2022-11-17T05:11:25.547Z,99041.66
2022-11-17T05:14:29.503Z,99051.03
2022-11-17T05:17:32.047Z,99053.31
2022-11-17T05:20:34.915Z,99041.63
2022-11-17T05:23:53.994Z,99041.19
2022-11-17T05:26:56.946Z,99051.72
2022-11-17T05:29:59.880Z,99052.97
2022-11-17T05:33:02.746Z,99037.78
2022-11-17T05:36:06.239Z,99047.13
2022-11-17T05:39:10.079Z,99047.19
2022-11-17T05:42:12.661Z,99056.03
2022-11-17T05:45:15.565Z,99062.34
2022-11-17T05:48:18.479Z,99068.16
2022-11-17T05:51:23.410Z,99060.41
2022-11-17T05:54:27.033Z,99081.47
2022-11-17T05:57:31.993Z,99089.13
2022-11-17T06:00:34.788Z,99086.53
2022-11-17T06:03:41.710Z,99100.88
2022-11-17T06:06:46.544Z,99105.25
2022-11-17T06:09:50.946Z,99109.16
2022-11-17T06:12:53.549Z,99112.28
2022-11-17T06:15:59.703Z,99121.69
2022-11-17T06:19:16.021Z,99118.06
2022-11-17T06:22:18.987Z,99135.28
2022-11-17T06:25:21.794Z,99132.53
2022-11-17T06:28:27.331Z,99131.31
2022-11-17T06:31:32.381Z,99136.91
2022-11-17T06:34:35.736Z,99132.94
2022-11-17T06:37:38.330Z,99151.09
2022-11-17T06:40:41.275Z,99144.66
2022-11-17T06:43:43.809Z,99154.00
2022-11-17T06:46:49.221Z,99151.66
2022-11-17T06:49:52.076Z,99165.22
2022-11-17T06:52:59.843Z,99166.84
2022-11-17T06:56:09.161Z,99176.13
2022-11-17T06:59:12.105Z,99178.22
2022-11-17T07:02:14.776Z,99177.09
2022-11-17T07:05:17.928Z,99180.59
2022-11-17T07:08:22.746Z,99182.62
2022-11-17T07:11:25.795Z,99174.81
2022-11-17T07:14:28.507Z,99168.13
2022-11-17T07:17:32.011Z,99168.97
2022-11-17T07:20:34.864Z,99176.75
2022-11-17T07:23:39.031Z,99163.47
2022-11-17T07:26:41.684Z,99186.16
2022-11-17T07:29:44.539Z,99165.03
2022-11-17T07:32:51.928Z,99179.06
2022-11-17T07:36:03.184Z,99179.09
2022-11-17T07:39:06.590Z,99188.03
2022-11-17T07:42:09.588Z,99189.16
2022-11-17T07:45:12.257Z,99198.56
2022-11-17T07:48:15.207Z,99195.47
2022-11-17T07:51:17.826Z,99190.78
2022-11-17T07:54:20.965Z,99190.41
2022-11-17T07:57:25.662Z,99201.34
2022-11-17T08:00:31.831Z,99192.37
2022-11-17T08:03:34.998Z,99195.44
2022-11-17T08:06:37.723Z,99200.91
2022-11-17T08:09:40.609Z,99200.13
2022-11-17T08:12:43.500Z,99191.22
2022-11-17T08:15:46.516Z,99199.78
2022-11-17T08:18:52.539Z,99200.63
2022-11-17T08:21:55.610Z,99204.91
2022-11-17T08:24:58.175Z,99208.06
2022-11-17T08:28:01.247Z,99216.25
2022-11-17T08:31:05.766Z,99200.22
2022-11-17T08:34:08.668Z,99200.63
2022-11-17T08:37:11.530Z,99204.94
2022-11-17T08:40:16.443Z,99210.78
2022-11-17T08:43:18.975Z,99211.56
2022-11-17T08:46:21.871Z,99216.66
2022-11-17T08:49:24.506Z,99219.34
2022-11-17T08:52:28.238Z,99222.13
2022-11-17T08:55:31.006Z,99220.53
2022-11-17T08:58:44.989Z,99211.91
2022-11-17T09:01:47.791Z,99218.88
2022-11-17T09:04:50.779Z,99206.00
2022-11-17T09:07:53.631Z,99201.69
2022-11-17T09:10:56.674Z,99198.22
2022-11-17T09:13:59.324Z,99202.56
2022-11-17T09:17:02.238Z,99216.97
2022-11-17T09:20:05.423Z,99223.63
2022-11-17T09:23:08.362Z,99221.28
2022-11-17T09:26:14.652Z,99221.69
2022-11-17T09:29:17.983Z,99231.44
2022-11-17T09:32:20.889Z,99232.56
2022-11-17T09:35:24.135Z,99224.00
2022-11-17T09:38:27.313Z,99223.59
2022-11-17T09:41:41.404Z,99223.59
2022-11-17T09:45:15.397Z,99209.53
2022-11-17T09:48:40.997Z,99213.06
2022-11-17T09:51:47.677Z,99216.97
2022-11-17T09:54:58.970Z,99207.97
2022-11-17T09:58:07.940Z,99221.59
2022-11-17T10:01:13.903Z,99218.03
2022-11-17T10:04:17.125Z,99217.22
2022-11-17T10:07:21.004Z,99210.22
2022-11-17T10:10:37.567Z,99206.22
2022-11-17T10:13:40.228Z,99206.97
2022-11-17T10:16:45.953Z,99205.78
2022-11-17T10:19:48.954Z,99219.03
2022-11-17T10:22:53.802Z,99214.38
2022-11-17T10:25:58.452Z,99204.44
2022-11-17T10:29:09.032Z,99196.22
2022-11-17T10:32:15.241Z,99210.97
2022-11-17T10:35:18.068Z,99206.72
2022-11-17T10:38:21.029Z,99193.53
2022-11-17T10:41:27.615Z,99189.16
2022-11-17T10:44:32.646Z,99161.81
2022-11-17T10:47:39.660Z,99165.00
2022-11-17T10:50:57.342Z,99160.28
2022-11-17T10:54:06.634Z,99158.94
2022-11-17T10:57:20.120Z,99159.34
2022-11-17T11:00:35.437Z,99165.28
2022-11-17T11:03:49.253Z,99162.34
2022-11-17T11:07:20.698Z,99166.97
2022-11-17T11:10:30.255Z,99179.00
2022-11-17T11:13:49.798Z,99183.72
2022-11-17T11:16:52.491Z,99181.50
2022-11-17T11:19:56.063Z,99187.69
2022-11-17T11:23:24.535Z,99185.41
2022-11-17T11:26:45.935Z,99190.59
2022-11-17T11:29:54.899Z,99192.84
2022-11-17T11:33:25.554Z,99189.31
2022-11-17T11:37:08.190Z,99191.72
2022-11-17T11:40:22.411Z,99193.91
2022-11-17T11:44:02.684Z,99197.19
2022-11-17T11:47:26.861Z,99203.38
2022-11-17T11:50:41.496Z,99199.56
2022-11-17T11:54:15.104Z,99202.75
2022-11-17T11:57:22.518Z,99198.25
2022-11-17T12:00:25.642Z,99201.37
2022-11-17T12:03:51.277Z,99204.97
2022-11-17T12:07:35.960Z,99200.59
2022-11-17T12:10:53.967Z,99199.19
2022-11-17T12:13:58.523Z,99196.03
2022-11-17T12:17:13.387Z,99198.81
2022-11-17T12:20:31.460Z,99207.34
2022-11-17T12:23:40.374Z,99208.28
2022-11-17T12:26:43.679Z,99207.34
2022-11-17T12:29:47.002Z,99189.81
2022-11-17T12:32:49.522Z,99204.66
2022-11-17T12:36:29.840Z,99196.13
2022-11-17T12:39:51.443Z,99195.66
2022-11-17T12:43:16.420Z,99181.47
2022-11-17T12:46:33.311Z,99182.78
2022-11-17T12:50:03.014Z,99181.97
2022-11-17T12:53:41.078Z,99189.06
2022-11-17T12:56:43.991Z,99191.84
2022-11-17T13:00:18.132Z,99194.81
2022-11-17T13:03:41.840Z,99195.56
2022-11-17T13:07:01.371Z,99191.41
2022-11-17T13:10:04.667Z,99181.59
2022-11-17T13:13:10.475Z,99192.78
2022-11-17T13:16:20.138Z,99196.50
2022-11-17T13:19:46.137Z,99198.00
2022-11-17T13:22:59.969Z,99195.22
2022-11-17T13:26:21.079Z,99185.94
2022-11-17T13:29:24.334Z,99193.66
2022-11-17T13:32:29.193Z,99200.47
2022-11-17T13:35:34.788Z,99203.75
2022-11-17T13:38:39.479Z,99215.09
2022-11-17T13:41:42.750Z,99215.44
2022-11-17T13:44:46.163Z,99216.25
2022-11-17T13:47:50.526Z,99211.13
2022-11-17T13:50:53.386Z,99218.28
2022-11-17T13:54:02.990Z,99208.94
2022-11-17T13:57:08.439Z,99215.81
2022-11-17T14:00:17.294Z,99206.16
2022-11-17T14:03:48.532Z,99203.88
2022-11-17T14:07:02.650Z,99204.00
2022-11-17T14:10:29.201Z,99201.69
2022-11-17T14:13:41.485Z,99207.69
2022-11-17T14:16:45.182Z,99201.19
2022-11-17T14:19:48.200Z,99202.47
2022-11-17T14:23:10.873Z,99212.66
2022-11-17T14:26:24.714Z,99217.41
2022-11-17T14:29:28.545Z,99215.41
2022-11-17T14:32:32.456Z,99213.94
2022-11-17T14:35:35.777Z,99216.37
2022-11-17T14:38:38.379Z,99216.44
2022-11-17T14:41:45.620Z,99217.66
2022-11-17T14:44:48.298Z,99228.28
2022-11-17T14:47:51.697Z,99230.69
2022-11-17T14:51:00.503Z,99229.13
2022-11-17T14:54:04.036Z,99218.59
2022-11-17T14:57:06.709Z,99222.13
2022-11-17T15:00:13.517Z,99222.13
2022-11-17T15:03:20.081Z,99227.56
2022-11-17T15:06:24.179Z,99229.94
2022-11-17T15:09:26.849Z,99228.75
2022-11-17T15:12:30.198Z,99231.09
2022-11-17T15:15:33.277Z,99233.78
2022-11-17T15:18:36.244Z,99236.91
2022-11-17T15:21:39.539Z,99242.34
2022-11-17T15:24:42.523Z,99234.13
2022-11-17T15:27:45.675Z,99235.69
2022-11-17T15:30:48.648Z,99243.09
2022-11-17T15:33:51.293Z,99232.16
2022-11-17T15:36:54.407Z,99237.19
2022-11-17T15:39:57.128Z,99233.28
2022-11-17T15:43:00.035Z,99222.34
2022-11-17T15:46:05.395Z,99225.44
2022-11-17T15:49:08.458Z,99206.59
2022-11-17T15:52:11.203Z,99224.47
2022-11-17T15:55:14.228Z,99244.22
2022-11-17T15:58:16.796Z,99251.16
2022-11-17T16:01:30.271Z,99247.66
2022-11-17T16:04:33.141Z,99252.34
2022-11-17T16:07:35.883Z,99248.78
2022-11-17T16:10:39.387Z,99233.63
2022-11-17T16:13:42.516Z,99240.25
2022-11-17T16:16:46.899Z,99242.59
2022-11-17T16:19:49.704Z,99246.97
2022-11-17T16:22:52.767Z,99250.00
2022-11-17T16:25:55.604Z,99254.19
2022-11-17T16:29:04.981Z,99253.28
2022-11-17T16:32:08.434Z,99259.59
2022-11-17T16:35:11.409Z,99262.19
2022-11-17T16:38:16.111Z,99259.34
2022-11-17T16:41:20.467Z,99258.31
2022-11-17T16:44:23.257Z,99254.50
2022-11-17T16:47:26.348Z,99247.84
2022-11-17T16:50:29.191Z,99260.91
2022-11-17T16:53:32.106Z,99247.94
